createdAt,value
2023-02-20T00:01:34.648Z,7.40
2023-02-20T00:04:01.318Z,7.40
2023-02-20T00:06:28.017Z,7.40
2023-02-20T00:08:54.672Z,7.40
2023-02-20T00:11:21.312Z,7.40
2023-02-20T00:13:48.562Z,7.40
2023-02-20T00:16:15.395Z,7.40
2023-02-20T00:18:42.180Z,7.40
2023-02-20T00:21:08.901Z,7.40
2023-02-20T00:23:35.724Z,7.40
2023-02-20T00:26:02.485Z,7.40
2023-02-20T00:28:29.956Z,7.40
2023-02-20T00:30:56.883Z,7.40
2023-02-20T00:33:23.798Z,7.40
2023-02-20T00:35:50.488Z,7.40
2023-02-20T00:38:17.249Z,7.40
2023-02-20T00:40:43.973Z,7.30
2023-02-20T00:43:10.626Z,7.40
2023-02-20T00:45:37.320Z,7.30
2023-02-20T00:48:04.326Z,7.40
2023-02-20T00:50:31.114Z,7.40
2023-02-20T00:52:57.774Z,7.30
2023-02-20T00:55:24.448Z,7.30
2023-02-20T00:57:51.110Z,7.50
2023-02-20T01:00:25.094Z,7.30
2023-02-20T01:02:51.891Z,7.40
2023-02-20T01:05:18.617Z,7.30
2023-02-20T01:07:45.271Z,7.30
2023-02-20T01:10:12.256Z,7.30
2023-02-20T01:12:39.213Z,7.30
2023-02-20T01:15:07.211Z,7.30
2023-02-20T01:17:34.033Z,7.30
2023-02-20T01:20:00.791Z,7.30
2023-02-20T01:22:27.437Z,7.20
2023-02-20T01:24:54.105Z,7.20
2023-02-20T01:27:20.757Z,7.20
2023-02-20T01:29:47.458Z,7.10
2023-02-20T01:32:14.294Z,7.10
2023-02-20T01:34:40.970Z,7.10
2023-02-20T01:37:13.665Z,7.00
2023-02-20T01:39:40.370Z,7.00
2023-02-20T01:42:08.473Z,7.00
2023-02-20T01:44:36.552Z,7.10
2023-02-20T01:47:12.730Z,7.10
2023-02-20T01:49:40.885Z,9.20
2023-02-20T01:52:13.723Z,7.10
2023-02-20T01:54:40.922Z,7.10
2023-02-20T01:57:09.297Z,7.10
2023-02-20T01:59:36.898Z,7.20
2023-02-20T02:02:04.348Z,7.20
2023-02-20T02:04:31.079Z,7.70
2023-02-20T02:06:57.799Z,7.10
2023-02-20T02:10:09.925Z,7.20
2023-02-20T02:12:36.615Z,7.10
2023-02-20T02:15:03.305Z,7.20
2023-02-20T02:18:11.590Z,7.10
2023-02-20T02:20:56.338Z,7.20
2023-02-20T02:23:44.988Z,7.10
2023-02-20T02:26:50.474Z,7.20
2023-02-20T02:29:38.088Z,7.20
2023-02-20T02:32:14.631Z,7.20
2023-02-20T02:35:01.682Z,7.20
2023-02-20T02:37:48.983Z,7.20
2023-02-20T02:40:27.784Z,7.20
2023-02-20T02:43:33.650Z,7.20
2023-02-20T02:46:05.358Z,7.20
2023-02-20T02:48:47.088Z,7.20
2023-02-20T02:51:21.925Z,7.20
2023-02-20T02:54:14.584Z,7.20
2023-02-20T02:56:42.948Z,7.20
2023-02-20T02:59:10.946Z,7.20
2023-02-20T03:01:43.164Z,7.00
2023-02-20T03:04:10.713Z,7.00
2023-02-20T03:06:39.035Z,6.80
2023-02-20T03:09:19.892Z,6.80
2023-02-20T03:11:46.685Z,6.80
2023-02-20T03:14:38.053Z,6.80
2023-02-20T03:17:10.607Z,6.80
2023-02-20T03:19:42.029Z,6.70
2023-02-20T03:22:28.726Z,6.70
2023-02-20T03:24:59.691Z,6.60
2023-02-20T03:27:56.024Z,6.60
2023-02-20T03:30:32.004Z,6.70
2023-02-20T03:33:29.508Z,6.60
2023-02-20T03:36:14.883Z,6.50
2023-02-20T03:39:00.561Z,6.40
2023-02-20T03:41:46.093Z,6.40
2023-02-20T03:44:13.397Z,6.40
2023-02-20T03:46:40.094Z,6.40
2023-02-20T03:49:11.040Z,6.40
2023-02-20T03:51:37.806Z,6.30
2023-02-20T03:54:04.470Z,6.30
2023-02-20T03:56:40.503Z,6.20
2023-02-20T03:59:17.732Z,6.20
2023-02-20T04:01:45.046Z,6.20
2023-02-20T04:04:14.221Z,6.20
2023-02-20T04:06:40.932Z,6.20
2023-02-20T04:09:12.302Z,6.10
2023-02-20T04:11:41.289Z,6.10
2023-02-20T04:14:07.964Z,6.10
2023-02-20T04:16:37.661Z,6.00
2023-02-20T04:19:04.827Z,6.00
2023-02-20T04:21:42.875Z,5.90
2023-02-20T04:24:12.472Z,5.90
2023-02-20T04:26:39.173Z,5.90
2023-02-20T04:29:05.860Z,5.90
2023-02-20T04:31:32.561Z,5.90
2023-02-20T04:33:59.244Z,5.90
2023-02-20T04:36:26.015Z,5.80
2023-02-20T04:38:52.773Z,5.80
2023-02-20T04:41:19.487Z,5.80
2023-02-20T04:43:47.200Z,5.80
2023-02-20T04:46:14.523Z,5.70
2023-02-20T04:48:41.525Z,5.70
2023-02-20T04:51:08.286Z,5.60
2023-02-20T04:53:34.974Z,5.60
2023-02-20T04:56:01.704Z,5.60
2023-02-20T04:58:28.580Z,5.50
2023-02-20T05:00:55.229Z,5.50
2023-02-20T05:03:21.946Z,5.40
2023-02-20T05:05:48.687Z,5.50
2023-02-20T05:08:15.343Z,5.30
2023-02-20T05:10:42.295Z,5.30
2023-02-20T05:13:09.019Z,5.30
2023-02-20T05:15:35.678Z,5.30
2023-02-20T05:18:02.442Z,5.30
2023-02-20T05:20:47.733Z,5.30
2023-02-20T05:23:14.435Z,5.20
2023-02-20T05:25:41.286Z,5.10
2023-02-20T05:28:07.951Z,5.20
2023-02-20T05:30:34.773Z,5.30
2023-02-20T05:33:01.461Z,5.30
2023-02-20T05:35:28.161Z,5.20
2023-02-20T05:37:54.830Z,5.20
2023-02-20T05:40:21.579Z,5.20
2023-02-20T05:42:48.223Z,5.10
2023-02-20T05:45:15.317Z,5.10
2023-02-20T05:47:42.018Z,5.10
2023-02-20T05:52:36.013Z,5.00
2023-02-20T05:55:02.855Z,5.00
2023-02-20T05:57:29.525Z,5.00
2023-02-20T05:59:56.261Z,4.90
2023-02-20T06:02:22.985Z,4.70
2023-02-20T06:07:16.961Z,4.90
2023-02-20T06:09:44.291Z,4.90
2023-02-20T06:12:11.126Z,4.90
2023-02-20T06:14:37.808Z,4.80
2023-02-20T06:17:04.468Z,4.70
2023-02-20T06:19:31.215Z,4.70
2023-02-20T06:22:01.661Z,4.60
2023-02-20T06:24:29.260Z,4.90
2023-02-20T06:26:55.981Z,4.60
2023-02-20T06:29:22.651Z,4.60
2023-02-20T06:31:49.658Z,4.60
2023-02-20T06:34:16.607Z,4.60
2023-02-20T06:36:43.554Z,4.60
2023-02-20T06:39:11.592Z,4.60
2023-02-20T06:41:38.389Z,4.70
2023-02-20T06:44:05.718Z,4.70
2023-02-20T06:46:32.427Z,4.70
2023-02-20T06:48:59.436Z,4.70
2023-02-20T06:51:30.961Z,4.70
2023-02-20T06:53:58.072Z,4.80
2023-02-20T06:56:27.063Z,4.90
2023-02-20T06:58:54.000Z,4.90
2023-02-20T07:01:22.318Z,5.00
2023-02-20T07:03:50.751Z,5.00
2023-02-20T07:06:17.530Z,5.00
2023-02-20T07:08:44.341Z,5.00
2023-02-20T07:11:11.745Z,5.00
2023-02-20T07:13:38.529Z,5.10
2023-02-20T07:16:05.706Z,5.10
2023-02-20T07:18:32.485Z,5.20
2023-02-20T07:20:59.173Z,5.30
2023-02-20T07:23:25.834Z,5.40
2023-02-20T07:25:52.739Z,5.50
2023-02-20T07:28:19.804Z,5.60
2023-02-20T07:33:16.954Z,5.70
2023-02-20T07:35:43.628Z,5.80
2023-02-20T07:38:10.288Z,5.80
2023-02-20T07:40:38.938Z,5.90
2023-02-20T07:43:06.834Z,5.90
2023-02-20T07:45:33.722Z,6.00
2023-02-20T07:48:00.447Z,6.10
2023-02-20T07:50:27.147Z,6.20
2023-02-20T07:52:53.827Z,6.20
2023-02-20T07:55:20.497Z,6.40
2023-02-20T07:57:47.884Z,6.50
2023-02-20T08:00:15.987Z,6.50
2023-02-20T08:02:42.653Z,6.60
2023-02-20T08:05:09.925Z,6.80
2023-02-20T08:07:36.733Z,6.90
2023-02-20T08:10:04.186Z,7.00
2023-02-20T08:12:30.863Z,7.00
2023-02-20T08:14:57.515Z,7.10
2023-02-20T08:17:27.754Z,7.20
2023-02-20T08:19:56.446Z,7.40
2023-02-20T08:22:28.022Z,7.60
2023-02-20T08:25:04.323Z,7.60
2023-02-20T08:27:31.570Z,7.70
2023-02-20T08:29:58.426Z,7.70
2023-02-20T08:32:25.125Z,8.20
2023-02-20T08:34:51.836Z,8.00
2023-02-20T08:37:18.497Z,8.10
2023-02-20T08:39:45.287Z,8.00
2023-02-20T08:42:15.856Z,8.20
2023-02-20T08:44:42.632Z,8.30
2023-02-20T08:47:09.289Z,8.50
2023-02-20T08:49:35.961Z,8.70
2023-02-20T08:52:05.604Z,8.80
2023-02-20T08:54:32.458Z,8.70
2023-02-20T08:56:59.105Z,8.90
2023-02-20T08:59:25.900Z,9.10
2023-02-20T09:01:52.545Z,9.20
2023-02-20T09:04:20.917Z,9.10
2023-02-20T09:06:47.572Z,9.20
2023-02-20T09:09:14.265Z,9.10
2023-02-20T09:11:41.089Z,9.00
2023-02-20T09:14:08.166Z,9.20
2023-02-20T09:16:34.904Z,9.30
2023-02-20T09:19:01.670Z,9.30
2023-02-20T09:21:29.327Z,9.60
2023-02-20T09:23:56.045Z,9.70
2023-02-20T09:26:22.720Z,9.80
2023-02-20T09:28:49.443Z,10.30
2023-02-20T09:31:16.144Z,10.30
2023-02-20T09:33:50.897Z,10.40
2023-02-20T09:36:18.236Z,10.20
2023-02-20T09:38:44.910Z,10.20
2023-02-20T09:41:54.437Z,10.20
2023-02-20T09:44:39.065Z,10.30
2023-02-20T09:47:30.622Z,10.30
2023-02-20T09:49:59.500Z,10.30
2023-02-20T09:52:26.630Z,10.30
2023-02-20T09:54:55.355Z,10.40
2023-02-20T09:57:26.746Z,10.20
2023-02-20T09:59:55.023Z,10.90
2023-02-20T10:02:27.482Z,9.80
2023-02-20T10:05:01.550Z,9.70
2023-02-20T10:07:40.216Z,9.80
2023-02-20T10:10:30.879Z,10.00
2023-02-20T10:13:10.609Z,10.00
2023-02-20T10:15:53.677Z,10.20
2023-02-20T10:18:53.968Z,10.20
2023-02-20T10:21:36.429Z,10.40
2023-02-20T10:24:26.357Z,10.50
2023-02-20T10:27:02.972Z,10.60
2023-02-20T10:29:29.703Z,10.60
2023-02-20T10:32:07.117Z,10.70
2023-02-20T10:34:35.944Z,10.80
2023-02-20T10:37:06.568Z,10.80
2023-02-20T10:39:33.302Z,10.90
2023-02-20T10:42:21.862Z,11.10
2023-02-20T10:45:02.791Z,11.10
2023-02-20T10:47:42.929Z,11.40
2023-02-20T10:50:33.036Z,11.60
2023-02-20T10:53:14.898Z,11.70
2023-02-20T10:55:44.297Z,11.60
2023-02-20T10:58:36.113Z,11.70
2023-02-20T11:01:05.660Z,11.90
2023-02-20T11:03:35.191Z,11.90
2023-02-20T11:06:02.379Z,12.10
2023-02-20T11:08:29.032Z,12.00
2023-02-20T11:11:00.316Z,12.00
2023-02-20T11:13:27.114Z,12.20
2023-02-20T11:15:55.279Z,12.10
2023-02-20T11:18:33.676Z,12.20
2023-02-20T11:21:00.471Z,12.80
2023-02-20T11:23:42.894Z,12.40
2023-02-20T11:26:22.778Z,12.50
2023-02-20T11:28:58.212Z,12.10
2023-02-20T11:31:25.538Z,12.30
2023-02-20T11:33:52.286Z,12.50
2023-02-20T11:36:26.170Z,12.50
2023-02-20T11:39:04.040Z,12.50
2023-02-20T11:41:36.443Z,12.50
2023-02-20T11:44:14.814Z,12.40
2023-02-20T11:46:41.529Z,12.60
2023-02-20T11:49:27.406Z,12.70
2023-02-20T11:51:55.575Z,12.90
2023-02-20T11:54:24.327Z,13.10
2023-02-20T11:57:01.579Z,12.80
2023-02-20T11:59:30.047Z,12.70
2023-02-20T12:02:16.222Z,12.90
2023-02-20T12:05:02.898Z,12.90
2023-02-20T12:07:35.857Z,13.00
2023-02-20T12:10:21.550Z,13.10
2023-02-20T12:12:48.440Z,17.40
2023-02-20T12:15:16.168Z,13.00
2023-02-20T12:17:55.902Z,13.10
2023-02-20T12:20:26.938Z,13.40
2023-02-20T12:23:14.916Z,13.50
2023-02-20T12:25:53.492Z,13.50
2023-02-20T12:28:28.530Z,13.40
2023-02-20T12:31:04.139Z,13.40
2023-02-20T12:34:00.131Z,13.80
2023-02-20T12:36:58.280Z,13.70
2023-02-20T12:39:54.331Z,13.70
2023-02-20T12:42:24.971Z,13.80
2023-02-20T12:45:00.691Z,13.90
2023-02-20T12:47:32.575Z,13.90
2023-02-20T12:50:22.126Z,13.80
2023-02-20T12:52:57.971Z,13.80
2023-02-20T12:55:44.629Z,13.90
2023-02-20T12:58:26.918Z,13.80
2023-02-20T13:00:55.529Z,13.90
2023-02-20T13:03:31.443Z,14.10
2023-02-20T13:05:58.216Z,14.00
2023-02-20T13:08:37.408Z,14.20
2023-02-20T13:11:14.220Z,14.10
2023-02-20T13:14:05.868Z,14.10
2023-02-20T13:16:36.160Z,14.10
2023-02-20T13:19:17.394Z,14.10
2023-02-20T13:21:44.037Z,14.20
2023-02-20T13:24:19.710Z,14.20
2023-02-20T13:26:47.453Z,13.80
2023-02-20T13:29:15.799Z,14.00
2023-02-20T13:31:48.147Z,14.10
2023-02-20T13:34:14.903Z,14.10
2023-02-20T13:36:48.766Z,14.10
2023-02-20T13:39:25.215Z,14.20
2023-02-20T13:41:54.920Z,14.20
2023-02-20T13:44:39.791Z,14.30
2023-02-20T13:47:22.244Z,14.30
2023-02-20T13:49:58.389Z,14.20
2023-02-20T13:52:43.708Z,14.10
2023-02-20T13:55:13.515Z,14.10
2023-02-20T13:58:12.795Z,14.20
2023-02-20T14:00:54.211Z,14.10
2023-02-20T14:03:29.062Z,14.20
2023-02-20T14:06:13.205Z,14.30
2023-02-20T14:08:41.848Z,14.20
2023-02-20T14:11:12.434Z,14.10
2023-02-20T14:13:41.074Z,14.20
2023-02-20T14:16:26.772Z,14.30
2023-02-20T14:18:59.965Z,14.40
2023-02-20T14:21:26.666Z,14.50
2023-02-20T14:23:53.440Z,14.50
2023-02-20T14:26:27.486Z,14.40
2023-02-20T14:28:56.176Z,14.40
2023-02-20T14:31:38.636Z,14.70
2023-02-20T14:34:09.028Z,14.50
2023-02-20T14:36:54.106Z,16.20
2023-02-20T14:39:46.434Z,14.60
2023-02-20T14:42:18.591Z,14.60
2023-02-20T14:44:47.976Z,14.90
2023-02-20T14:47:15.416Z,14.50
2023-02-20T14:49:42.183Z,14.60
2023-02-20T14:52:14.560Z,14.50
2023-02-20T14:54:43.334Z,14.40
2023-02-20T14:57:14.372Z,14.40
2023-02-20T14:59:41.250Z,14.40
2023-02-20T15:02:31.334Z,14.40
2023-02-20T15:05:05.524Z,14.40
2023-02-20T15:07:32.386Z,14.30
2023-02-20T15:10:00.625Z,14.30
2023-02-20T15:12:34.439Z,14.30
2023-02-20T15:15:09.589Z,14.20
2023-02-20T15:17:46.043Z,14.10
2023-02-20T15:20:31.576Z,14.20
2023-02-20T15:23:15.456Z,14.10
2023-02-20T15:25:43.029Z,14.00
2023-02-20T15:28:28.730Z,14.00
2023-02-20T15:31:10.789Z,13.90
2023-02-20T15:33:48.095Z,13.90
2023-02-20T15:36:15.833Z,13.90
2023-02-20T15:38:42.686Z,13.80
2023-02-20T15:41:10.024Z,13.70
2023-02-20T15:43:45.971Z,13.60
2023-02-20T15:46:15.344Z,13.70
2023-02-20T15:48:42.473Z,13.70
2023-02-20T15:51:10.230Z,13.60
2023-02-20T15:53:36.945Z,13.50
2023-02-20T15:56:03.662Z,13.30
2023-02-20T15:58:36.927Z,13.20
2023-02-20T16:01:04.290Z,13.20
2023-02-20T16:03:33.908Z,13.20
2023-02-20T16:06:05.744Z,13.20
2023-02-20T16:08:32.424Z,13.00
2023-02-20T16:10:59.073Z,12.80
2023-02-20T16:13:33.610Z,12.90
2023-02-20T16:16:00.497Z,12.80
2023-02-20T16:18:27.405Z,12.70
2023-02-20T16:20:54.136Z,11.90
2023-02-20T16:23:20.899Z,12.50
2023-02-20T16:25:47.584Z,12.30
2023-02-20T16:28:14.236Z,12.30
2023-02-20T16:30:42.559Z,12.30
2023-02-20T16:33:13.014Z,12.20
2023-02-20T16:35:40.381Z,12.20
2023-02-20T16:38:07.084Z,12.20
2023-02-20T16:40:33.729Z,12.10
2023-02-20T16:43:00.420Z,12.10
2023-02-20T16:45:27.092Z,11.90
2023-02-20T16:47:54.839Z,11.90
2023-02-20T16:50:25.891Z,11.80
2023-02-20T16:52:53.448Z,11.70
2023-02-20T16:55:32.888Z,11.60
2023-02-20T16:57:59.601Z,11.40
2023-02-20T17:00:40.277Z,12.50
2023-02-20T17:03:11.668Z,11.20
2023-02-20T17:05:39.474Z,11.20
2023-02-20T17:08:06.410Z,11.20
2023-02-20T17:10:33.069Z,11.00
2023-02-20T17:12:59.802Z,10.90
2023-02-20T17:15:26.621Z,10.80
2023-02-20T17:17:53.611Z,10.70
2023-02-20T17:20:22.211Z,11.60
2023-02-20T17:23:02.710Z,10.40
2023-02-20T17:25:32.052Z,10.20
2023-02-20T17:27:59.047Z,11.70
2023-02-20T17:30:25.890Z,9.80
2023-02-20T17:32:53.082Z,9.90
2023-02-20T17:35:19.839Z,9.40
2023-02-20T17:37:46.740Z,9.60
2023-02-20T17:40:13.636Z,9.30
2023-02-20T17:42:41.036Z,9.20
2023-02-20T17:45:08.436Z,9.00
2023-02-20T17:47:37.251Z,8.90
2023-02-20T17:50:04.211Z,8.80
2023-02-20T17:52:30.970Z,8.80
2023-02-20T17:54:57.677Z,8.70
2023-02-20T17:57:24.650Z,8.80
2023-02-20T17:59:51.380Z,8.50
2023-02-20T18:02:18.565Z,8.40
2023-02-20T18:04:45.242Z,8.30
2023-02-20T18:07:14.163Z,8.30
2023-02-20T18:09:40.888Z,8.50
2023-02-20T18:12:07.847Z,9.50
2023-02-20T18:14:34.534Z,8.80
2023-02-20T18:17:01.296Z,8.90
2023-02-20T18:19:27.976Z,9.00
2023-02-20T18:21:54.753Z,9.00
2023-02-20T18:24:26.287Z,9.30
2023-02-20T18:26:53.611Z,9.70
2023-02-20T18:29:21.285Z,9.40
2023-02-20T18:31:49.114Z,9.50
2023-02-20T18:34:15.911Z,9.60
2023-02-20T18:36:42.606Z,9.80
2023-02-20T18:39:09.917Z,9.60
2023-02-20T18:41:37.158Z,9.90
2023-02-20T18:44:03.958Z,9.80
2023-02-20T18:46:35.523Z,9.80
2023-02-20T18:49:02.576Z,9.70
2023-02-20T18:51:30.446Z,9.80
2023-02-20T18:53:57.167Z,9.80
2023-02-20T18:56:24.639Z,9.80
2023-02-20T18:58:51.440Z,9.90
2023-02-20T19:01:19.861Z,9.90
2023-02-20T19:03:47.844Z,9.80
2023-02-20T19:06:44.710Z,9.80
2023-02-20T19:09:14.458Z,9.90
2023-02-20T19:11:41.162Z,9.80
2023-02-20T19:14:08.212Z,9.70
2023-02-20T19:16:34.898Z,9.60
2023-02-20T19:19:01.641Z,9.20
2023-02-20T19:21:28.337Z,9.40
2023-02-20T19:23:55.002Z,9.30
2023-02-20T19:26:21.727Z,9.30
2023-02-20T19:28:49.729Z,9.20
2023-02-20T19:31:16.763Z,9.00
2023-02-20T19:33:44.023Z,8.90
2023-02-20T19:36:10.772Z,10.90
2023-02-20T19:38:38.901Z,8.90
2023-02-20T19:41:05.620Z,9.40
2023-02-20T19:43:32.306Z,8.80
2023-02-20T19:45:59.062Z,8.70
2023-02-20T19:48:28.032Z,8.70
2023-02-20T19:50:56.079Z,8.80
2023-02-20T19:53:23.201Z,8.70
2023-02-20T19:55:54.282Z,8.60
2023-02-20T19:58:21.247Z,8.50
2023-02-20T20:00:47.935Z,8.40
2023-02-20T20:03:14.821Z,8.30
2023-02-20T20:05:41.506Z,8.30
2023-02-20T20:08:08.176Z,8.20
2023-02-20T20:10:35.428Z,8.20
2023-02-20T20:13:02.138Z,8.30
2023-02-20T20:15:29.521Z,8.10
2023-02-20T20:17:58.519Z,8.10
2023-02-20T20:20:25.411Z,7.90
2023-02-20T20:22:52.930Z,7.90
2023-02-20T20:25:19.988Z,7.90
2023-02-20T20:27:49.155Z,7.90
2023-02-20T20:30:18.323Z,8.00
2023-02-20T20:32:45.815Z,7.90
2023-02-20T20:35:12.465Z,7.90
2023-02-20T20:37:39.253Z,7.90
2023-02-20T20:40:07.021Z,7.90
2023-02-20T20:42:33.670Z,7.70
2023-02-20T20:45:00.425Z,7.60
2023-02-20T20:47:28.769Z,7.40
2023-02-20T20:49:55.490Z,7.30
2023-02-20T20:52:26.644Z,7.20
2023-02-20T20:54:54.764Z,7.00
2023-02-20T20:57:22.774Z,6.70
2023-02-20T20:59:49.510Z,6.50
2023-02-20T21:02:16.464Z,6.40
2023-02-20T21:04:44.026Z,6.30
2023-02-20T21:07:10.839Z,6.20
2023-02-20T21:09:37.530Z,6.10
2023-02-20T21:12:04.440Z,6.00
2023-02-20T21:14:35.363Z,5.90
2023-02-20T21:17:04.770Z,5.80
2023-02-20T21:19:31.918Z,5.60
2023-02-20T21:21:58.583Z,5.50
2023-02-20T21:24:25.367Z,5.40
2023-02-20T21:26:52.504Z,5.30
2023-02-20T21:29:19.265Z,5.20
2023-02-20T21:31:46.180Z,5.10
2023-02-20T21:34:13.034Z,4.50
2023-02-20T21:36:39.689Z,5.00
2023-02-20T21:39:06.453Z,4.90
2023-02-20T21:41:51.727Z,4.90
2023-02-20T21:44:26.843Z,4.90
2023-02-20T21:46:57.461Z,5.00
2023-02-20T21:49:24.327Z,5.00
2023-02-20T21:51:51.107Z,5.10
2023-02-20T21:54:18.401Z,5.00
2023-02-20T21:56:45.119Z,4.90
2023-02-20T21:59:11.767Z,4.70
2023-02-20T22:01:38.912Z,4.60
2023-02-20T22:04:06.629Z,4.60
2023-02-20T22:06:33.283Z,4.50
2023-02-20T22:09:18.396Z,4.40
2023-02-20T22:12:03.664Z,4.40
2023-02-20T22:14:48.925Z,4.30
2023-02-20T22:17:34.374Z,4.40
2023-02-20T22:20:19.735Z,4.50
2023-02-20T22:23:05.142Z,4.70
2023-02-20T22:25:50.452Z,4.90
2023-02-20T22:28:35.630Z,5.40
2023-02-20T22:31:21.810Z,5.80
2023-02-20T22:34:07.164Z,5.80
2023-02-20T22:36:52.720Z,5.60
2023-02-20T22:39:38.474Z,7.80
2023-02-20T22:42:34.420Z,5.60
2023-02-20T22:45:20.568Z,5.80
2023-02-20T22:48:06.014Z,6.00
2023-02-20T22:50:51.528Z,6.10
2023-02-20T22:53:37.038Z,6.10
2023-02-20T22:56:22.862Z,6.00
2023-02-20T22:59:08.245Z,6.10
2023-02-20T23:01:53.437Z,6.10
2023-02-20T23:04:38.819Z,5.90
2023-02-20T23:07:24.446Z,5.60
2023-02-20T23:10:09.516Z,5.40
2023-02-20T23:12:55.097Z,5.30
2023-02-20T23:15:40.442Z,5.10
2023-02-20T23:18:26.046Z,5.00
2023-02-20T23:21:11.706Z,4.90
2023-02-20T23:23:57.134Z,4.80
2023-02-20T23:26:42.694Z,4.70
2023-02-20T23:29:28.168Z,4.60
2023-02-20T23:32:13.827Z,4.40
2023-02-20T23:34:59.006Z,4.20
2023-02-20T23:37:44.365Z,4.10
2023-02-20T23:40:36.501Z,4.00
2023-02-20T23:43:23.866Z,3.80
2023-02-20T23:46:09.610Z,3.70
2023-02-20T23:48:54.944Z,3.60
2023-02-20T23:51:40.451Z,3.50
2023-02-20T23:54:25.749Z,3.50
2023-02-20T23:57:10.970Z,3.50
2023-02-20T23:59:56.094Z,3.30
